Time;durP1;ratioP1;P1;durP2;ratioP2;P2;SDS_P1;SDS_P2;PMS_P1;PMS_P2;Temp;Humidity;BMP_temperature;BMP_pressure;BME280_temperature;BME280_humidity;BME280_pressure;Samples;Min_cycle;Max_cycle;Signal;HPM_P1;HPM_P2
2022/09/12 00:01:08;;;;;;;0.70;0.70;;;;;12.10;96167.00;;;;5096872;28;20217;-69
2022/09/12 00:03:36;;;;;;;0.73;0.73;;;;;12.00;96167.00;;;;5114634;28;20663;-68
2022/09/12 00:06:09;;;;;;;0.70;0.70;;;;;11.80;96174.00;;;;5114844;28;20224;-68
2022/09/12 00:08:35;;;;;;;1.20;1.20;;;;;11.70;96168.00;;;;5114619;28;20201;-69
2022/09/12 00:11:06;;;;;;;0.83;0.83;;;;;11.50;96174.00;;;;5114664;28;20277;-68
2022/09/12 00:13:33;;;;;;;0.60;0.60;;;;;11.50;96168.00;;;;5096721;28;20641;-68
2022/09/12 00:16:00;;;;;;;0.70;0.70;;;;;11.60;96171.00;;;;5114720;28;20213;-69
2022/09/12 00:18:27;;;;;;;0.97;0.97;;;;;11.70;96169.00;;;;5114723;28;20198;-69
2022/09/12 00:20:54;;;;;;;0.93;0.93;;;;;11.80;96159.00;;;;5114549;28;20221;-68
2022/09/12 00:23:21;;;;;;;1.17;1.17;;;;;11.90;96164.00;;;;5114575;28;20283;-69
2022/09/12 00:25:48;;;;;;;1.77;1.67;;;;;11.90;96161.00;;;;5096220;28;20200;-69
2022/09/12 00:28:18;;;;;;;1.03;1.03;;;;;11.90;96158.00;;;;5114409;28;20188;-70
2022/09/12 00:30:46;;;;;;;0.80;0.80;;;;;11.50;96163.00;;;;5114434;28;20240;-68
2022/09/12 00:33:14;;;;;;;3.97;1.23;;;;;11.50;96156.00;;;;5113347;28;20198;-69
2022/09/12 00:35:43;;;;;;;1.23;1.23;;;;;11.60;96160.00;;;;5114435;28;20197;-66
2022/09/12 00:38:10;;;;;;;1.10;1.10;;;;;11.60;96156.00;;;;5114141;28;20237;-69
2022/09/12 00:40:37;;;;;;;1.00;1.00;;;;;11.70;96152.00;;;;5114128;28;20209;-68
2022/09/12 00:43:04;;;;;;;1.20;1.20;;;;;11.60;96149.00;;;;5114169;28;20304;-68
2022/09/12 00:45:31;;;;;;;1.10;1.10;;;;;11.60;96154.00;;;;5114196;28;20197;-69
2022/09/12 00:48:01;;;;;;;1.10;1.10;;;;;11.50;96151.00;;;;5096288;28;20213;-68
2022/09/12 00:50:28;;;;;;;1.20;0.93;;;;;11.40;96147.00;;;;5113974;28;20239;-69
2022/09/12 00:53:01;;;;;;;1.20;1.20;;;;;11.30;96146.00;;;;5113981;28;20209;-68
2022/09/12 00:55:34;;;;;;;1.17;1.17;;;;;11.10;96143.00;;;;5114306;28;20288;-68
2022/09/12 00:58:07;;;;;;;0.90;0.90;;;;;11.30;96138.00;;;;5114217;28;20200;-69
2022/09/12 01:00:34;;;;;;;1.03;1.03;;;;;11.30;96135.00;;;;5113986;28;20228;-69
2022/09/12 01:03:05;;;;;;;1.03;1.03;;;;;11.40;96134.00;;;;5113806;28;20190;-68
2022/09/12 01:05:36;;;;;;;1.03;1.03;;;;;11.50;96138.00;;;;5113991;28;20229;-69
2022/09/12 01:08:06;;;;;;;1.03;1.03;;;;;11.40;96129.00;;;;5113928;28;20213;-67
2022/09/12 01:10:36;;;;;;;0.60;0.60;;;;;11.40;96133.00;;;;5113631;28;21310;-69
2022/09/12 01:13:05;;;;;;;1.20;1.20;;;;;11.40;96125.00;;;;5113837;28;20206;-68
2022/09/12 01:15:36;;;;;;;1.20;1.20;;;;;11.50;96131.00;;;;5113846;28;20243;-69
2022/09/12 01:18:12;;;;;;;0.67;0.67;;;;;11.50;96128.00;;;;5113752;28;20194;-68
2022/09/12 01:21:04;;;;;;;0.67;0.67;;;;;11.40;96122.00;;;;5113714;28;20637;-68
2022/09/12 01:24:18;;;;;;;1.00;1.00;;;;;11.20;96126.00;;;;5095576;28;20216;-68
2022/09/12 01:27:08;;;;;;;0.70;0.70;;;;;11.30;96120.00;;;;5095916;28;20194;-68
2022/09/12 01:30:19;;;;;;;1.03;1.03;;;;;11.30;96109.00;;;;5113458;28;20264;-66
2022/09/12 01:33:14;;;;;;;1.00;1.00;;;;;11.30;96117.00;;;;5011554;28;20209;-69
2022/09/12 01:35:48;;;;;;;0.80;0.80;;;;;11.30;96097.00;;;;5113555;28;20208;-68
2022/09/12 01:38:25;;;;;;;1.57;1.47;;;;;11.20;96098.00;;;;5113409;28;20198;-69
2022/09/12 01:40:58;;;;;;;2.87;2.00;;;;;11.20;96099.00;;;;5113563;28;20217;-69
2022/09/12 01:43:31;;;;;;;0.80;0.80;;;;;11.10;96105.00;;;;5113538;28;20190;-68
2022/09/12 01:46:05;;;;;;;0.87;0.87;;;;;10.80;96103.00;;;;5116997;28;20628;-68
2022/09/12 01:48:37;;;;;;;0.70;0.70;;;;;10.70;96105.00;;;;5116877;28;20194;-69
2022/09/12 01:51:09;;;;;;;4.83;1.30;;;;;10.90;96093.00;;;;5117139;28;20244;-70
2022/09/12 01:53:41;;;;;;;0.80;0.80;;;;;11.00;96101.00;;;;5116937;28;20596;-68
2022/09/12 01:56:13;;;;;;;0.60;0.60;;;;;11.10;96100.00;;;;5116816;28;20206;-68
2022/09/12 01:58:43;;;;;;;1.03;1.03;;;;;10.90;96100.00;;;;5116997;28;20289;-68
2022/09/12 02:01:15;;;;;;;0.80;0.80;;;;;11.10;96091.00;;;;5116992;28;20217;-69
2022/09/12 02:03:47;;;;;;;0.77;0.77;;;;;11.10;96091.00;;;;5116825;28;20198;-69
2022/09/12 02:06:19;;;;;;;0.90;0.90;;;;;11.10;96085.00;;;;5116776;28;20217;-69
2022/09/12 02:08:51;;;;;;;0.87;0.87;;;;;11.10;96089.00;;;;5116690;28;20291;-69
2022/09/12 02:11:19;;;;;;;1.20;1.20;;;;;11.10;96082.00;;;;5116608;28;20569;-71
2022/09/12 02:13:53;;;;;;;1.13;1.13;;;;;11.10;96089.00;;;;5116584;28;20194;-65
2022/09/12 02:16:24;;;;;;;0.83;0.83;;;;;11.20;96081.00;;;;5116547;28;20185;-69
2022/09/12 02:18:59;;;;;;;1.23;1.23;;;;;11.10;96081.00;;;;5116365;28;20213;-69
2022/09/12 02:21:27;;;;;;;0.73;0.73;;;;;11.00;96077.00;;;;5116396;28;20617;-66
2022/09/12 02:23:58;;;;;;;0.80;0.80;;;;;11.00;96078.00;;;;5098279;28;20222;-68
2022/09/12 02:26:30;;;;;;;0.93;0.90;;;;;11.00;96078.00;;;;5116324;28;20204;-69
2022/09/12 02:28:59;;;;;;;1.10;1.00;;;;;11.00;96067.00;;;;5116202;28;20226;-68
2022/09/12 02:31:34;;;;;;;0.70;0.70;;;;;11.00;96061.00;;;;5116325;28;20274;-69
2022/09/12 02:34:18;;;;;;;0.87;0.87;;;;;10.80;96067.00;;;;5116324;28;20629;-69
2022/09/12 02:36:53;;;;;;;1.27;1.27;;;;;10.70;96059.00;;;;5116412;28;20202;-68
2022/09/12 02:39:22;;;;;;;1.50;1.40;;;;;10.70;96069.00;;;;5116244;28;20577;-69
2022/09/12 02:41:54;;;;;;;1.00;1.00;;;;;10.80;96057.00;;;;5116105;28;20207;-69
2022/09/12 02:44:22;;;;;;;0.70;0.70;;;;;10.80;96058.00;;;;5116244;28;20194;-68
2022/09/12 02:46:52;;;;;;;0.80;0.80;;;;;10.70;96065.00;;;;5116015;28;20576;-68
2022/09/12 02:49:20;;;;;;;0.60;0.60;;;;;10.50;96026.00;;;;5116103;28;20229;-69
2022/09/12 02:51:47;;;;;;;1.10;1.10;;;;;10.60;96065.00;;;;5119966;28;20337;-69
2022/09/12 02:54:16;;;;;;;1.37;1.27;;;;;10.70;96063.00;;;;5098118;28;20206;-69
2022/09/12 02:56:44;;;;;;;0.87;0.87;;;;;10.60;96067.00;;;;5114636;28;20198;-68
2022/09/12 02:59:20;;;;;;;0.60;0.60;;;;;10.60;96062.00;;;;5097828;28;20581;-69
2022/09/12 03:02:03;;;;;;;1.27;1.17;;;;;10.60;96060.00;;;;5115685;28;20288;-68
2022/09/12 03:05:00;;;;;;;0.60;0.60;;;;;10.60;96066.00;;;;5115674;28;20547;-69
2022/09/12 03:07:41;;;;;;;0.60;0.60;;;;;10.60;96057.00;;;;5115407;28;20281;-69
2022/09/12 03:10:14;;;;;;;0.80;0.80;;;;;10.70;96055.00;;;;5115525;28;20213;-69
2022/09/12 03:12:52;;;;;;;0.60;0.60;;;;;10.80;96065.00;;;;5115618;28;20334;-68
2022/09/12 03:15:34;;;;;;;0.70;0.70;;;;;10.70;96063.00;;;;5115665;28;20234;-69
2022/09/12 03:18:11;;;;;;;1.00;1.00;;;;;10.70;96061.00;;;;5115652;28;20208;-69
2022/09/12 03:20:46;;;;;;;0.70;0.70;;;;;10.60;96061.00;;;;5115490;28;20646;-71
2022/09/12 03:23:24;;;;;;;0.60;0.60;;;;;10.60;96064.00;;;;5115407;28;20195;-67
2022/09/12 03:25:56;;;;;;;0.90;0.90;;;;;10.60;96059.00;;;;5115322;28;20260;-69
2022/09/12 03:28:23;;;;;;;0.77;0.77;;;;;10.50;96057.00;;;;5115414;28;20523;-68
2022/09/12 03:30:53;;;;;;;0.73;0.73;;;;;10.60;96060.00;;;;5115121;28;20513;-69
2022/09/12 03:33:21;;;;;;;1.03;1.03;;;;;10.40;96066.00;;;;5115354;28;20206;-66
2022/09/12 03:35:49;;;;;;;0.97;0.97;;;;;10.50;96056.00;;;;5115213;28;20187;-69
2022/09/12 03:38:17;;;;;;;0.80;0.80;;;;;10.40;96064.00;;;;5115377;28;20527;-69
2022/09/12 03:40:46;;;;;;;0.77;0.77;;;;;10.30;96058.00;;;;5115098;28;20194;-68
2022/09/12 03:43:13;;;;;;;1.57;1.23;;;;;10.30;96064.00;;;;5115084;28;20210;-69
2022/09/12 03:45:40;;;;;;;0.90;0.90;;;;;10.40;96060.00;;;;5115189;28;20754;-69
2022/09/12 03:48:07;;;;;;;0.93;0.93;;;;;10.30;96054.00;;;;5114962;28;20245;-69
2022/09/12 03:50:34;;;;;;;0.83;0.70;;;;;10.20;96059.00;;;;5115091;28;20217;-68
2022/09/12 03:53:01;;;;;;;1.00;1.00;;;;;10.20;96047.00;;;;5115126;28;20210;-69
2022/09/12 03:55:28;;;;;;;0.90;0.90;;;;;10.30;96053.00;;;;5115011;28;20202;-68
2022/09/12 03:57:55;;;;;;;1.20;1.20;;;;;10.20;96051.00;;;;5114964;28;20254;-67
2022/09/12 04:00:23;;;;;;;1.00;1.00;;;;;10.20;96048.00;;;;5114866;28;20212;-68
2022/09/12 04:02:54;;;;;;;0.70;0.70;;;;;10.20;96058.00;;;;5114829;28;20190;-69
2022/09/12 04:05:21;;;;;;;0.57;0.57;;;;;10.10;96053.00;;;;5114695;28;20225;-70
2022/09/12 04:07:48;;;;;;;1.13;1.07;;;;;10.00;96049.00;;;;5114376;28;20201;-68
2022/09/12 04:10:15;;;;;;;0.73;0.73;;;;;10.10;96058.00;;;;5114439;28;20234;-68
2022/09/12 04:12:42;;;;;;;0.77;0.77;;;;;9.90;96048.00;;;;5114780;28;20198;-70
2022/09/12 04:15:10;;;;;;;1.27;1.27;;;;;10.00;96046.00;;;;5114623;28;20218;-68
2022/09/12 04:17:37;;;;;;;1.03;1.03;;;;;9.90;96050.00;;;;5114469;28;20190;-64
2022/09/12 04:20:04;;;;;;;1.57;1.47;;;;;9.90;96054.00;;;;5114505;28;20648;-67
2022/09/12 04:22:32;;;;;;;0.80;0.80;;;;;9.80;96041.00;;;;5114456;28;20229;-69
2022/09/12 04:25:01;;;;;;;1.07;1.07;;;;;9.70;96053.00;;;;5114397;28;20221;-69
2022/09/12 04:27:29;;;;;;;0.70;0.70;;;;;9.80;96047.00;;;;5114472;28;20305;-68
2022/09/12 04:29:56;;;;;;;1.00;1.00;;;;;9.80;96042.00;;;;5114370;28;20256;-67
2022/09/12 04:32:22;;;;;;;0.67;0.67;;;;;9.70;96053.00;;;;5114228;28;20218;-68
2022/09/12 04:34:51;;;;;;;0.90;0.90;;;;;9.70;96046.00;;;;5114240;28;20216;-70
2022/09/12 04:37:18;;;;;;;0.90;0.90;;;;;9.80;96044.00;;;;5114155;28;20617;-68
2022/09/12 04:39:45;;;;;;;0.70;0.70;;;;;9.80;96047.00;;;;5114272;28;20222;-68
2022/09/12 04:42:14;;;;;;;1.47;1.37;;;;;9.90;96039.00;;;;5114136;28;20285;-65
2022/09/12 04:44:41;;;;;;;0.93;0.93;;;;;9.90;96042.00;;;;5114023;28;20210;-68
2022/09/12 04:47:10;;;;;;;1.23;1.23;;;;;9.90;96041.00;;;;5114026;28;20501;-68
2022/09/12 04:49:37;;;;;;;0.97;0.97;;;;;9.90;96036.00;;;;5113982;28;20304;-68
2022/09/12 04:52:04;;;;;;;1.10;1.10;;;;;9.80;96036.00;;;;5114121;28;20204;-68
2022/09/12 04:54:31;;;;;;;0.90;0.90;;;;;9.80;96033.00;;;;5113905;28;20286;-68
2022/09/12 04:56:58;;;;;;;1.13;1.13;;;;;9.70;96036.00;;;;5096035;28;20209;-68
2022/09/12 04:59:25;;;;;;;1.20;1.20;;;;;9.70;96044.00;;;;5113959;28;20500;-68
2022/09/12 05:01:53;;;;;;;1.83;1.73;;;;;9.70;96034.00;;;;5113802;28;20213;-68
2022/09/12 05:04:20;;;;;;;0.80;0.80;;;;;9.60;96038.00;;;;5113901;28;20194;-68
2022/09/12 05:06:47;;;;;;;0.90;0.90;;;;;9.40;96044.00;;;;5113894;28;20691;-68
2022/09/12 05:09:14;;;;;;;1.70;1.57;;;;;9.40;96041.00;;;;5113644;28;20210;-68
2022/09/12 05:11:43;;;;;;;0.80;0.80;;;;;9.40;96040.00;;;;5113594;28;20244;-68
2022/09/12 05:14:10;;;;;;;0.77;0.77;;;;;9.50;96030.00;;;;5113765;28;20197;-68
2022/09/12 05:16:37;;;;;;;0.70;0.70;;;;;9.50;96044.00;;;;5113499;28;20662;-67
2022/09/12 05:19:04;;;;;;;0.80;0.80;;;;;9.60;96041.00;;;;5113065;28;20206;-66
2022/09/12 05:21:31;;;;;;;0.60;0.60;;;;;9.60;96043.00;;;;5095633;28;20213;-68
2022/09/12 05:23:59;;;;;;;0.60;0.60;;;;;9.60;96047.00;;;;5113669;28;20526;-68
2022/09/12 05:26:28;;;;;;;1.43;1.43;;;;;9.60;96044.00;;;;5113662;28;20276;-64
2022/09/12 05:28:55;;;;;;;0.67;0.67;;;;;9.60;96049.00;;;;5113394;28;20268;-68
2022/09/12 05:31:23;;;;;;;0.77;0.77;;;;;9.60;96051.00;;;;5113608;28;20206;-68
2022/09/12 05:33:52;;;;;;;1.97;1.67;;;;;9.80;96050.00;;;;5113538;28;20222;-68
2022/09/12 05:36:24;;;;;;;8.93;7.67;;;;;9.90;96048.00;;;;5113609;28;20644;-70
2022/09/12 05:38:53;;;;;;;1.37;1.37;;;;;10.00;96055.00;;;;5113572;28;20179;-67
2022/09/12 05:41:21;;;;;;;1.03;1.03;;;;;10.00;96040.00;;;;5113423;28;20255;-65
2022/09/12 05:43:52;;;;;;;0.70;0.70;;;;;10.00;96049.00;;;;5113373;28;20202;-68
2022/09/12 05:46:24;;;;;;;0.90;0.90;;;;;10.10;96051.00;;;;5113381;28;20189;-68
2022/09/12 05:48:53;;;;;;;0.93;0.93;;;;;10.10;96053.00;;;;5113256;28;20282;-68
2022/09/12 05:51:22;;;;;;;1.43;1.37;;;;;10.20;96056.00;;;;5113181;28;20221;-68
2022/09/12 05:53:51;;;;;;;1.03;1.03;;;;;10.10;96046.00;;;;5113230;28;20198;-68
2022/09/12 05:56:21;;;;;;;1.50;1.40;;;;;10.10;96047.00;;;;5113223;28;20217;-68
2022/09/12 05:58:51;;;;;;;0.80;0.80;;;;;10.00;96059.00;;;;5113211;28;20266;-68
2022/09/12 06:01:19;;;;;;;1.00;1.00;;;;;10.00;96062.00;;;;5113124;28;20214;-68
2022/09/12 06:03:50;;;;;;;0.87;0.87;;;;;10.10;96056.00;;;;5113160;28;20269;-68
2022/09/12 06:06:19;;;;;;;0.67;0.67;;;;;10.20;96052.00;;;;5113349;28;20251;-69
2022/09/12 06:08:48;;;;;;;0.60;0.60;;;;;10.30;96063.00;;;;5113111;28;20209;-68
2022/09/12 06:11:17;;;;;;;0.93;0.93;;;;;10.40;96060.00;;;;5112988;28;20366;-67
2022/09/12 06:13:44;;;;;;;1.20;1.10;;;;;10.50;96052.00;;;;5112994;28;20217;-68
2022/09/12 06:16:12;;;;;;;1.37;1.37;;;;;10.60;96062.00;;;;5113132;28;20258;-68
2022/09/12 06:18:41;;;;;;;0.73;0.73;;;;;10.60;96059.00;;;;5112915;28;20547;-65
2022/09/12 06:21:09;;;;;;;0.70;0.70;;;;;10.50;96064.00;;;;5113087;28;20284;-68
2022/09/12 06:23:37;;;;;;;2.57;1.10;;;;;10.60;96057.00;;;;5112844;28;20213;-68
2022/09/12 06:26:06;;;;;;;0.70;0.70;;;;;10.70;96055.00;;;;5113181;28;20183;-66
2022/09/12 06:28:35;;;;;;;1.07;1.07;;;;;10.80;96054.00;;;;5112945;28;20189;-69
2022/09/12 06:31:06;;;;;;;1.43;1.37;;;;;10.80;96052.00;;;;5113688;28;20550;-67
2022/09/12 06:33:37;;;;;;;0.80;0.80;;;;;10.80;96054.00;;;;5116289;28;20190;-66
2022/09/12 06:36:06;;;;;;;0.90;0.90;;;;;11.00;96043.00;;;;5116106;28;20222;-63
2022/09/12 06:38:34;;;;;;;0.70;0.70;;;;;10.90;96055.00;;;;5116096;28;20194;-64
2022/09/12 06:41:05;;;;;;;0.60;0.60;;;;;11.00;96052.00;;;;5116092;28;20193;-63
2022/09/12 06:43:32;;;;;;;0.73;0.73;;;;;11.10;96054.00;;;;5116186;28;20194;-64
2022/09/12 06:46:00;;;;;;;0.80;0.80;;;;;11.30;96059.00;;;;5116174;28;20232;-64
2022/09/12 06:48:27;;;;;;;0.60;0.60;;;;;11.40;96053.00;;;;5115835;28;20245;-66
2022/09/12 06:50:57;;;;;;;0.70;0.70;;;;;11.40;96050.00;;;;5115903;28;20281;-66
2022/09/12 06:53:25;;;;;;;1.10;1.10;;;;;11.50;96055.00;;;;5115988;28;20204;-67
2022/09/12 06:55:56;;;;;;;1.07;1.07;;;;;11.20;96060.00;;;;5115875;28;20222;-67
2022/09/12 06:58:23;;;;;;;0.70;0.70;;;;;11.30;96051.00;;;;5115883;28;20529;-67
2022/09/12 07:00:50;;;;;;;0.60;0.60;;;;;11.60;96057.00;;;;5115708;28;20216;-65
2022/09/12 07:03:17;;;;;;;0.90;0.90;;;;;11.60;96051.00;;;;5115764;28;20198;-67
2022/09/12 07:05:45;;;;;;;0.90;0.90;;;;;11.70;96058.00;;;;5097862;28;20262;-70
2022/09/12 07:08:12;;;;;;;0.70;0.70;;;;;11.80;96053.00;;;;5115844;28;20194;-66
2022/09/12 07:10:39;;;;;;;0.60;0.60;;;;;11.80;96047.00;;;;5115637;28;20286;-68
2022/09/12 07:13:06;;;;;;;0.80;0.80;;;;;11.90;96049.00;;;;5115287;28;20224;-67
2022/09/12 07:15:35;;;;;;;1.83;1.10;;;;;12.00;96045.00;;;;5115449;28;20216;-67
2022/09/12 07:18:02;;;;;;;0.80;0.80;;;;;12.20;96049.00;;;;5115379;28;20187;-66
2022/09/12 07:20:32;;;;;;;1.57;1.47;;;;;12.20;96050.00;;;;5115518;28;20198;-65
2022/09/12 07:22:59;;;;;;;0.80;0.80;;;;;12.40;96044.00;;;;5115445;28;20202;-65
2022/09/12 07:25:27;;;;;;;0.83;0.83;;;;;12.60;96049.00;;;;5115531;28;20288;-67
2022/09/12 07:27:57;;;;;;;0.73;0.73;;;;;12.70;96039.00;;;;5115483;28;20221;-67
2022/09/12 07:30:26;;;;;;;1.23;1.23;;;;;12.80;96041.00;;;;5115303;28;20303;-67
2022/09/12 07:32:53;;;;;;;1.00;1.00;;;;;13.10;96038.00;;;;5115446;28;20198;-66
2022/09/12 07:35:21;;;;;;;0.93;0.93;;;;;13.00;96041.00;;;;5115359;28;20190;-67
2022/09/12 07:37:48;;;;;;;0.90;0.90;;;;;13.10;96036.00;;;;5115550;28;20198;-67
2022/09/12 07:40:14;;;;;;;1.23;1.23;;;;;13.10;96037.00;;;;5115403;28;20270;-69
2022/09/12 07:42:41;;;;;;;0.80;0.80;;;;;13.20;96037.00;;;;5114863;28;20521;-66
2022/09/12 07:45:10;;;;;;;0.93;0.93;;;;;13.10;96038.00;;;;5115106;28;20632;-67
2022/09/12 07:47:36;;;;;;;0.77;0.77;;;;;13.30;96038.00;;;;5115035;28;20228;-67
2022/09/12 07:50:05;;;;;;;1.47;1.37;;;;;13.50;96038.00;;;;5115121;28;20226;-67
2022/09/12 07:52:31;;;;;;;1.10;1.10;;;;;13.40;96046.00;;;;5115127;28;20201;-67
2022/09/12 07:54:58;;;;;;;0.90;0.90;;;;;13.70;96040.00;;;;5115101;28;20191;-66
2022/09/12 07:57:25;;;;;;;0.80;0.80;;;;;13.80;96044.00;;;;5114961;28;20194;-67
2022/09/12 07:59:52;;;;;;;0.63;0.63;;;;;13.90;96036.00;;;;5115013;28;20256;-67
2022/09/12 08:02:19;;;;;;;1.33;1.33;;;;;14.00;96036.00;;;;5114965;28;20258;-67
2022/09/12 08:04:47;;;;;;;0.80;0.80;;;;;14.20;96030.00;;;;5115027;28;20669;-67
2022/09/12 08:07:14;;;;;;;1.30;1.30;;;;;14.40;96030.00;;;;5114964;28;20322;-68
2022/09/12 08:09:41;;;;;;;0.70;0.70;;;;;14.50;96032.00;;;;5114921;28;20210;-67
2022/09/12 08:12:10;;;;;;;1.03;1.03;;;;;14.60;96030.00;;;;5114979;28;20201;-67
2022/09/12 08:14:37;;;;;;;0.93;0.93;;;;;14.80;96034.00;;;;5114557;28;20285;-67
2022/09/12 08:17:05;;;;;;;1.43;1.33;;;;;15.10;96039.00;;;;5114572;28;20220;-66
2022/09/12 08:19:32;;;;;;;1.43;1.33;;;;;15.10;96044.00;;;;5114843;28;20209;-66
2022/09/12 08:21:59;;;;;;;1.30;1.30;;;;;15.10;96035.00;;;;5114775;28;20239;-67
2022/09/12 08:24:26;;;;;;;1.10;1.10;;;;;15.20;96050.00;;;;5114833;28;20222;-66
2022/09/12 08:26:56;;;;;;;1.43;1.43;;;;;15.40;96048.00;;;;5114660;28;20186;-66
2022/09/12 08:29:23;;;;;;;0.73;0.73;;;;;15.40;96047.00;;;;5114588;28;20189;-66
2022/09/12 08:31:49;;;;;;;0.90;0.90;;;;;15.70;96050.00;;;;5114635;28;20213;-64
2022/09/12 08:34:18;;;;;;;0.93;0.93;;;;;15.80;96046.00;;;;5114509;28;20214;-67
2022/09/12 08:36:45;;;;;;;1.30;1.30;;;;;15.90;96038.00;;;;5114565;28;20186;-67
2022/09/12 08:39:13;;;;;;;1.20;1.20;;;;;16.00;96040.00;;;;5114448;28;20229;-67
2022/09/12 08:41:43;;;;;;;0.93;0.93;;;;;16.20;96040.00;;;;5096458;28;20225;-67
2022/09/12 08:44:27;;;;;;;1.00;1.00;;;;;16.40;96041.00;;;;5114521;28;20218;-68
2022/09/12 08:47:24;;;;;;;0.77;0.77;;;;;16.60;96042.00;;;;5114354;28;20273;-67
2022/09/12 08:49:59;;;;;;;4.20;1.47;;;;;16.90;96034.00;;;;5114351;28;20214;-69
2022/09/12 08:52:32;;;;;;;1.17;1.17;;;;;16.90;96039.00;;;;5114146;28;20166;-69
2022/09/12 08:55:03;;;;;;;1.13;1.13;;;;;16.90;96039.00;;;;5113282;28;20525;-69
2022/09/12 08:57:33;;;;;;;0.77;0.77;;;;;17.10;96039.00;;;;5114002;28;20218;-68
2022/09/12 09:00:04;;;;;;;0.87;0.87;;;;;17.20;96033.00;;;;5113951;28;20210;-66
2022/09/12 09:03:04;;;;;;;1.00;1.00;;;;;17.30;96038.00;;;;5113969;28;20275;-67
2022/09/12 09:05:41;;;;;;;0.73;0.73;;;;;17.50;96032.00;;;;5113994;28;20194;-67
2022/09/12 09:08:27;;;;;;;0.60;0.60;;;;;17.50;96044.00;;;;5113950;28;20212;-68
2022/09/12 09:11:01;;;;;;;0.60;0.60;;;;;17.60;96035.00;;;;5113920;28;20218;-68
2022/09/12 09:16:31;;;;;;;0.60;0.60;;;;;17.90;96037.00;;;;5113924;28;20202;-67
2022/09/12 09:19:06;;;;;;;0.67;0.67;;;;;18.00;96032.00;;;;5113953;28;20189;-69
2022/09/12 09:21:39;;;;;;;1.30;1.30;;;;;18.00;96025.00;;;;5113868;28;20648;-67
2022/09/12 09:24:10;;;;;;;1.70;0.90;;;;;18.10;96027.00;;;;5114088;28;20205;-70
2022/09/12 09:26:45;;;;;;;0.63;0.63;;;;;18.30;96029.00;;;;5113827;28;20305;-64
2022/09/12 09:29:17;;;;;;;0.80;0.80;;;;;18.20;96027.00;;;;5113802;28;20633;-68
2022/09/12 09:31:47;;;;;;;0.60;0.60;;;;;18.20;96036.00;;;;5095829;28;20226;-68
2022/09/12 09:34:18;;;;;;;0.90;0.90;;;;;18.40;96044.00;;;;5114069;28;20202;-67
2022/09/12 09:36:50;;;;;;;0.80;0.80;;;;;18.80;96037.00;;;;5113666;28;20703;-68
2022/09/12 09:39:36;;;;;;;3.37;1.07;;;;;18.70;96035.00;;;;5113617;28;20335;-64
2022/09/12 09:42:15;;;;;;;0.70;0.70;;;;;18.90;96044.00;;;;5113580;28;20293;-67
2022/09/12 09:44:47;;;;;;;0.60;0.60;;;;;19.00;96044.00;;;;5113665;28;20262;-67
2022/09/12 09:47:17;;;;;;;0.60;0.60;;;;;19.10;96047.00;;;;5113679;28;20186;-66
2022/09/12 09:49:43;;;;;;;0.70;0.70;;;;;19.40;96043.00;;;;5113982;28;20213;-68
2022/09/12 09:52:14;;;;;;;0.53;0.53;;;;;19.40;96034.00;;;;5097518;28;20513;-68
2022/09/12 09:54:49;;;;;;;0.90;0.90;;;;;19.50;96037.00;;;;5113560;28;20217;-68
2022/09/12 09:57:40;;;;;;;0.80;0.80;;;;;19.80;96032.00;;;;5113448;28;20202;-68
2022/09/12 10:00:30;;;;;;;0.83;0.83;;;;;19.90;96027.00;;;;5108119;28;20332;-67
2022/09/12 10:03:03;;;;;;;0.60;0.60;;;;;20.00;96026.00;;;;5113210;28;20227;-67
2022/09/12 10:05:32;;;;;;;0.57;0.57;;;;;20.20;96027.00;;;;5114684;28;20217;-63
2022/09/12 10:07:59;;;;;;;0.60;0.60;;;;;20.30;96028.00;;;;5116709;28;20577;-68
2022/09/12 10:10:26;;;;;;;0.93;0.93;;;;;20.30;96026.00;;;;5116585;28;20343;-68
2022/09/12 10:13:07;;;;;;;0.80;0.80;;;;;20.10;96027.00;;;;5116659;28;20190;-68
2022/09/12 10:15:36;;;;;;;0.73;0.73;;;;;20.20;96023.00;;;;5116683;28;20229;-67
2022/09/12 10:18:04;;;;;;;0.50;0.50;;;;;20.50;96020.00;;;;5098490;28;20515;-64
2022/09/12 10:20:33;;;;;;;0.70;0.70;;;;;20.80;96020.00;;;;5116621;28;20343;-68
2022/09/12 10:23:02;;;;;;;2.80;0.93;;;;;20.80;96009.00;;;;5116694;28;20229;-66
2022/09/12 10:25:29;;;;;;;1.60;1.03;;;;;21.10;96018.00;;;;5116631;28;20210;-68
2022/09/12 10:28:00;;;;;;;0.52;0.52;;;;;21.10;96012.00;;;;5116467;28;20240;-67
2022/09/12 10:30:27;;;;;;;0.80;0.80;;;;;21.40;96004.00;;;;5116478;28;20232;-68
2022/09/12 10:33:07;;;;;;;0.47;0.47;;;;;21.60;96004.00;;;;5116380;28;20208;-67
2022/09/12 10:35:44;;;;;;;0.87;0.87;;;;;21.70;96004.00;;;;5116307;28;20228;-68
2022/09/12 10:38:16;;;;;;;0.50;0.50;;;;;21.80;96004.00;;;;5116341;28;20179;-70
2022/09/12 10:40:43;;;;;;;0.60;0.60;;;;;21.70;96003.00;;;;5116408;28;20230;-67
2022/09/12 10:43:17;;;;;;;0.95;0.95;;;;;21.70;95995.00;;;;5116226;28;20637;-66
2022/09/12 10:45:46;;;;;;;0.80;0.80;;;;;21.90;96005.00;;;;5116135;28;20293;-68
2022/09/12 10:48:28;;;;;;;0.60;0.60;;;;;22.00;95984.00;;;;5116304;28;20293;-67
2022/09/12 10:50:55;;;;;;;0.70;0.70;;;;;21.90;95992.00;;;;5098400;28;20225;-69
2022/09/12 10:53:24;;;;;;;0.75;0.75;;;;;22.10;95991.00;;;;5116037;28;20259;-64
2022/09/12 10:56:01;;;;;;;0.80;0.80;;;;;22.10;95992.00;;;;5116057;28;20228;-68
2022/09/12 10:59:02;;;;;;;0.95;0.95;;;;;21.90;95985.00;;;;5098206;28;20581;-72
2022/09/12 11:01:37;;;;;;;0.90;0.90;;;;;22.10;95981.00;;;;5116064;28;20297;-63
2022/09/12 11:04:20;;;;;;;0.52;0.52;;;;;22.30;95976.00;;;;5115791;28;20660;-63
2022/09/12 11:06:57;;;;;;;0.57;0.57;;;;;22.40;95970.00;;;;5115882;28;20213;-64
2022/09/12 11:09:34;;;;;;;0.80;0.80;;;;;22.60;95964.00;;;;5115639;28;20323;-64
2022/09/12 11:12:07;;;;;;;0.73;0.73;;;;;22.80;95970.00;;;;5116057;28;20201;-69
2022/09/12 11:14:49;;;;;;;0.50;0.50;;;;;23.00;95964.00;;;;5115823;28;20257;-69
2022/09/12 11:17:28;;;;;;;0.60;0.60;;;;;23.00;95971.00;;;;5115067;28;20210;-69
2022/09/12 11:20:34;;;;;;;0.60;0.60;;;;;23.00;95971.00;;;;5115724;28;20427;-69
2022/09/12 11:23:20;;;;;;;0.45;0.45;;;;;23.10;95961.00;;;;5101264;28;20201;-70
2022/09/12 11:25:52;;;;;;;0.50;0.50;;;;;23.40;95962.00;;;;5115658;28;20198;-69
2022/09/12 11:28:30;;;;;;;0.30;0.30;;;;;23.40;95966.00;;;;5115650;28;20252;-67
2022/09/12 11:31:21;;;;;;;0.40;0.40;;;;;23.60;95962.00;;;;5115389;28;20221;-70
2022/09/12 11:33:50;;;;;;;0.50;0.50;;;;;23.70;95967.00;;;;5115495;28;20271;-69
2022/09/12 11:36:28;;;;;;;0.60;0.60;;;;;23.90;95965.00;;;;5115454;28;20190;-70
2022/09/12 11:39:06;;;;;;;0.50;0.50;;;;;24.10;95963.00;;;;5115304;28;20688;-68
2022/09/12 11:41:37;;;;;;;0.40;0.40;;;;;24.10;95974.00;;;;5115407;28;20200;-69
2022/09/12 11:44:13;;;;;;;0.50;0.50;;;;;24.40;95962.00;;;;5115481;28;20245;-69
2022/09/12 11:46:43;;;;;;;0.40;0.40;;;;;24.50;95961.00;;;;5115332;28;20277;-70
2022/09/12 11:49:20;;;;;;;0.50;0.50;;;;;24.50;95954.00;;;;5115086;28;20217;-70
2022/09/12 11:51:53;;;;;;;0.57;0.57;;;;;24.30;95957.00;;;;5115074;28;20214;-69
2022/09/12 11:54:23;;;;;;;0.63;0.63;;;;;24.30;95962.00;;;;5115330;28;20226;-68
2022/09/12 11:56:57;;;;;;;0.85;0.85;;;;;24.50;95959.00;;;;5115064;28;20293;-69
2022/09/12 11:59:34;;;;;;;0.70;0.70;;;;;24.50;95951.00;;;;5115105;28;20202;-70
2022/09/12 12:02:02;;;;;;;0.47;0.47;;;;;24.60;95956.00;;;;5115004;28;20262;-70
2022/09/12 12:04:37;;;;;;;0.57;0.57;;;;;24.80;95957.00;;;;5115032;28;20537;-66
2022/09/12 12:07:06;;;;;;;0.60;0.60;;;;;24.60;95944.00;;;;5114819;28;20237;-70
2022/09/12 12:09:34;;;;;;;0.40;0.40;;;;;24.80;95945.00;;;;5114760;28;20190;-69
2022/09/12 12:12:05;;;;;;;0.70;0.70;;;;;24.80;95939.00;;;;5114661;28;20221;-70
2022/09/12 12:14:41;;;;;;;0.40;0.40;;;;;24.90;95938.00;;;;5114773;28;20216;-70
2022/09/12 12:17:15;;;;;;;1.08;1.08;;;;;25.10;95934.00;;;;5114659;28;20475;-69
2022/09/12 12:19:42;;;;;;;0.65;0.65;;;;;25.30;95927.00;;;;5114660;28;20209;-68
2022/09/12 12:22:16;;;;;;;0.65;0.65;;;;;25.70;95934.00;;;;5114734;28;20527;-68
2022/09/12 12:25:21;;;;;;;0.50;0.50;;;;;25.50;95936.00;;;;5114348;28;20217;-67
2022/09/12 12:27:52;;;;;;;0.47;0.47;;;;;25.40;95932.00;;;;5114390;28;20198;-69
2022/09/12 12:31:01;;;;;;;0.60;0.60;;;;;25.50;95936.00;;;;5114290;28;20243;-67
2022/09/12 12:34:07;;;;;;;0.70;0.70;;;;;25.50;95929.00;;;;5066366;28;20414;-67
2022/09/12 12:36:42;;;;;;;0.50;0.50;;;;;25.60;95924.00;;;;5114437;28;20540;-67
2022/09/12 12:39:46;;;;;;;0.40;0.40;;;;;25.50;95919.00;;;;5114353;28;20197;-67
2022/09/12 12:43:02;;;;;;;2.38;0.98;;;;;25.70;95919.00;;;;5114470;28;20229;-65
2022/09/12 12:46:02;;;;;;;0.40;0.40;;;;;25.80;95922.00;;;;5114248;28;20202;-67